Time;durP1;ratioP1;P1;durP2;ratioP2;P2;SDS_P1;SDS_P2;PMS_P1;PMS_P2;Temp;Humidity;BMP_temperature;BMP_pressure;BME280_temperature;BME280_humidity;BME280_pressure;Samples;Min_cycle;Max_cycle;Signal;HPM_P1;HPM_P2
2022/12/04 00:02:10;;;;;;;;;29.75;28.50;;;;;5.20;68.31;100486.00;5030999;28;45631;-58
2022/12/04 00:04:35;;;;;;;;;32.75;28.50;;;;;5.22;68.68;100486.84;5035313;28;45817;-56
2022/12/04 00:07:01;;;;;;;;;37.00;31.75;;;;;5.24;68.21;100490.28;5035470;28;45422;-57
2022/12/04 00:09:26;;;;;;;;;30.75;28.00;;;;;5.18;66.22;100495.56;5035291;28;45423;-59
2022/12/04 00:11:52;;;;;;;;;30.50;30.50;;;;;5.11;67.68;100475.72;5031729;28;45446;-58
2022/12/04 00:14:17;;;;;;;;;38.50;33.00;;;;;5.15;66.54;100488.66;5033127;28;45467;-60
2022/12/04 00:16:43;;;;;;;;;32.75;28.00;;;;;5.08;68.35;100480.09;5035275;28;45475;-60
2022/12/04 00:19:08;;;;;;;;;39.50;32.75;;;;;5.09;66.52;100473.97;5031727;28;45563;-56
2022/12/04 00:21:34;;;;;;;;;38.50;33.75;;;;;5.05;67.20;100481.84;5035215;28;45578;-59
2022/12/04 00:23:59;;;;;;;;;35.50;31.50;;;;;5.03;67.50;100484.50;5016996;28;46092;-58
2022/12/04 00:26:27;;;;;;;;;32.75;27.50;;;;;5.03;66.77;100481.91;5034927;28;45401;-59
2022/12/04 00:28:53;;;;;;;;;37.00;32.75;;;;;5.02;67.95;100480.19;5035250;28;45526;-59
2022/12/04 00:31:21;;;;;;;;;34.75;27.75;;;;;5.06;66.44;100481.00;5035000;28;45649;-60
2022/12/04 00:33:46;;;;;;;;;38.25;33.75;;;;;5.08;67.30;100493.13;5021992;28;46055;-57
2022/12/04 00:36:15;;;;;;;;;27.00;27.00;;;;;5.04;66.17;100491.44;5016448;28;45491;-60
2022/12/04 00:38:41;;;;;;;;;37.50;34.50;;;;;5.04;67.18;100481.00;5034794;28;45482;-58
2022/12/04 00:41:11;;;;;;;;;37.25;34.25;;;;;5.02;66.35;100472.38;5035352;28;45598;-58
2022/12/04 00:43:37;;;;;;;;;41.75;31.50;;;;;5.02;67.49;100476.69;5034699;28;45431;-59
2022/12/04 00:46:02;;;;;;;;;30.50;28.25;;;;;5.01;66.52;100468.03;5034934;28;46225;-58
2022/12/04 00:48:28;;;;;;;;;35.25;33.75;;;;;5.08;68.79;100471.41;5034827;28;45575;-59
2022/12/04 00:50:54;;;;;;;;;34.50;30.75;;;;;5.07;66.81;100470.53;5010817;28;45655;-58
2022/12/04 00:53:19;;;;;;;;;39.25;32.00;;;;;5.06;66.54;100467.97;5022288;28;46326;-58
2022/12/04 00:55:45;;;;;;;;;32.00;27.25;;;;;5.04;67.63;100474.94;5034444;28;45481;-58
2022/12/04 00:58:11;;;;;;;;;30.50;30.25;;;;;5.04;68.09;100472.31;5034706;28;45695;-54
2022/12/04 01:00:39;;;;;;;;;31.25;28.50;;;;;5.06;67.20;100468.81;5034538;28;45531;-57
2022/12/04 01:03:06;;;;;;;;;31.75;31.75;;;;;5.08;67.86;100476.63;5031042;28;46794;-59
2022/12/04 01:05:40;;;;;;;;;34.75;31.75;;;;;5.10;69.14;100474.84;5034179;28;45503;-59
2022/12/04 01:08:06;;;;;;;;;32.50;31.25;;;;;5.11;66.83;100475.72;5032345;28;45501;-60
2022/12/04 01:10:31;;;;;;;;;32.75;32.00;;;;;5.06;69.57;100476.63;5026355;28;45424;-56
2022/12/04 01:12:57;;;;;;;;;35.00;30.75;;;;;5.01;66.77;100465.41;5033973;28;53891;-58
2022/12/04 01:15:22;;;;;;;;;32.00;30.25;;;;;4.98;67.68;100468.06;5016375;28;45571;-61
2022/12/04 01:17:48;;;;;;;;;35.50;33.25;;;;;5.00;66.64;100470.66;5033980;28;45807;-58
2022/12/04 01:20:14;;;;;;;;;28.50;27.25;;;;;4.96;66.68;100468.97;5034587;28;45657;-58
2022/12/04 01:22:39;;;;;;;;;32.75;29.00;;;;;4.95;66.22;100472.47;5034149;28;45486;-55
2022/12/04 01:25:05;;;;;;;;;31.00;30.75;;;;;4.97;69.33;100462.88;5013775;28;53402;-57
2022/12/04 01:27:31;;;;;;;;;39.00;32.50;;;;;4.97;68.98;100466.34;5034085;28;45588;-59
2022/12/04 01:29:57;;;;;;;;;27.75;26.25;;;;;4.96;68.37;100466.38;5034207;28;45597;-58
2022/12/04 01:32:22;;;;;;;;;31.00;29.00;;;;;4.99;67.96;100461.97;5034087;28;45491;-59
2022/12/04 01:34:47;;;;;;;;;36.75;33.00;;;;;5.01;67.76;100461.94;5032168;28;45523;-60
2022/12/04 01:37:13;;;;;;;;;39.00;35.00;;;;;5.01;67.18;100455.00;5021669;28;45934;-57
2022/12/04 01:39:38;;;;;;;;;31.75;28.00;;;;;4.95;67.02;100455.09;5001168;28;45607;-57
2022/12/04 01:42:04;;;;;;;;;28.25;24.50;;;;;4.91;66.75;100450.78;5024446;28;45981;-60
2022/12/04 01:44:30;;;;;;;;;34.75;32.00;;;;;4.92;66.64;100460.34;5032847;28;45465;-58
2022/12/04 01:46:58;;;;;;;;;36.50;32.75;;;;;4.94;67.26;100468.97;5026878;28;45451;-60
2022/12/04 01:49:34;;;;;;;;;32.25;28.25;;;;;4.87;67.11;100455.19;5004312;28;45457;-56
2022/12/04 01:52:05;;;;;;;;;38.75;33.25;;;;;4.88;67.35;100463.88;5016359;28;46174;-57
2022/12/04 01:54:36;;;;;;;;;34.00;30.00;;;;;4.87;67.16;100463.00;4994163;28;45468;-58
2022/12/04 01:57:08;;;;;;;;;37.50;32.50;;;;;4.88;68.71;100467.31;4994210;28;45444;-60
2022/12/04 01:59:42;;;;;;;;;36.00;33.00;;;;;4.88;67.02;100463.88;5008689;28;45463;-57
2022/12/04 02:02:11;;;;;;;;;34.75;33.00;;;;;4.92;66.93;100464.69;4997605;28;46278;-60
2022/12/04 02:04:39;;;;;;;;;40.75;34.00;;;;;4.91;66.89;100469.03;4993482;28;45480;-58
2022/12/04 02:07:04;;;;;;;;;32.25;31.00;;;;;4.91;66.47;100466.41;5011992;28;45546;-58
2022/12/04 02:09:31;;;;;;;;;35.50;33.50;;;;;4.92;67.08;100465.56;5031073;28;45434;-60
2022/12/04 02:12:23;;;;;;;;;31.75;29.75;;;;;4.93;67.23;100462.06;5033434;28;45635;-60
2022/12/04 02:15:07;;;;;;;;;34.50;31.25;;;;;4.96;65.88;100468.97;5033465;28;45483;-57
2022/12/04 02:18:00;;;;;;;;;38.75;35.50;;;;;4.87;66.70;100465.63;5032189;28;45452;-58
2022/12/04 02:20:31;;;;;;;;;38.25;33.25;;;;;4.86;67.64;100470.84;4993877;28;45509;-60
2022/12/04 02:23:19;;;;;;;;;37.00;32.25;;;;;4.84;66.83;100463.06;5007442;28;46167;-60
2022/12/04 02:26:15;;;;;;;;;46.25;37.25;;;;;4.83;66.39;100468.28;5007267;28;45455;-58
2022/12/04 02:29:17;;;;;;;;;35.75;31.75;;;;;4.83;66.56;100468.28;5010348;28;45365;-57
2022/12/04 02:31:54;;;;;;;;;38.00;35.75;;;;;4.85;68.02;100464.78;4984836;28;45628;-57
2022/12/04 02:34:34;;;;;;;;;34.75;32.75;;;;;4.90;67.86;100463.84;5033595;28;46306;-59
2022/12/04 02:37:04;;;;;;;;;46.00;35.25;;;;;4.94;67.78;100463.78;5033348;28;45541;-56
2022/12/04 02:39:37;;;;;;;;;43.25;36.75;;;;;4.96;68.02;100451.59;5030477;28;45602;-60
2022/12/04 02:42:13;;;;;;;;;37.50;36.75;;;;;4.96;68.16;100455.94;4998475;28;45536;-58
2022/12/04 02:44:56;;;;;;;;;38.00;35.25;;;;;4.99;66.99;100466.31;5006616;28;46291;-57
2022/12/04 02:47:24;;;;;;;;;37.75;35.00;;;;;4.95;67.61;100460.31;5009789;28;45551;-59
2022/12/04 02:49:55;;;;;;;;;39.50;35.00;;;;;5.03;68.38;100457.59;5026968;28;45602;-57
2022/12/04 02:52:27;;;;;;;;;39.00;34.25;;;;;5.04;67.30;100470.56;5020907;28;45495;-59
2022/12/04 02:55:03;;;;;;;;;39.00;35.25;;;;;4.98;67.38;100475.88;5019307;28;45760;-60
2022/12/04 02:57:34;;;;;;;;;39.50;34.50;;;;;4.96;66.45;100471.56;5033085;28;45470;-59
2022/12/04 03:00:07;;;;;;;;;44.50;36.00;;;;;4.92;67.32;100472.53;5004597;28;45515;-57
2022/12/04 03:03:01;;;;;;;;;35.75;33.00;;;;;4.90;66.92;100466.47;5005506;28;45472;-58
2022/12/04 03:05:40;;;;;;;;;43.25;37.50;;;;;4.94;68.20;100463.78;5030270;28;45572;-57
2022/12/04 03:08:17;;;;;;;;;34.50;32.75;;;;;4.99;68.00;100451.53;5032846;28;45431;-61
2022/12/04 03:10:51;;;;;;;;;46.00;39.00;;;;;5.01;66.74;100447.16;5029475;28;45522;-59
2022/12/04 03:13:23;;;;;;;;;39.00;31.25;;;;;4.97;66.71;100447.22;5023658;28;45470;-57
2022/12/04 03:15:56;;;;;;;;;40.75;34.75;;;;;4.93;66.02;100451.63;5016176;28;45495;-58
2022/12/04 03:18:32;;;;;;;;;13.50;9.50;;;;;4.87;66.88;100439.56;5035641;28;45551;-58
2022/12/04 03:21:05;;;;;;;;;47.50;38.75;;;;;4.88;66.71;100446.47;5035927;28;45421;-57
2022/12/04 03:23:35;;;;;;;;;35.25;34.25;;;;;4.88;66.64;100440.41;5036408;28;46137;-55
2022/12/04 03:26:09;;;;;;;;;42.50;38.50;;;;;4.90;68.34;100441.25;5020316;28;46480;-59
2022/12/04 03:28:49;;;;;;;;;34.75;34.00;;;;;4.92;66.89;100436.03;5036213;28;45395;-59
2022/12/04 03:31:23;;;;;;;;;43.25;35.25;;;;;4.96;67.70;100429.88;5008943;28;45519;-58
2022/12/04 03:33:51;;;;;;;;;40.75;35.75;;;;;5.02;67.08;100435.00;5019334;28;45540;-59
2022/12/04 03:36:22;;;;;;;;;38.50;34.75;;;;;5.06;67.08;100437.53;5035551;28;45550;-58
2022/12/04 03:38:57;;;;;;;;;35.75;33.50;;;;;5.08;67.63;100441.00;5035977;28;45443;-60
2022/12/04 03:41:32;;;;;;;;;44.00;38.00;;;;;5.05;67.72;100429.72;5021973;28;45474;-59
2022/12/04 03:44:16;;;;;;;;;39.50;33.75;;;;;5.07;66.11;100430.56;5035949;28;45790;-60
2022/12/04 03:46:53;;;;;;;;;46.00;37.50;;;;;5.05;66.50;100435.81;5035610;28;45546;-58
2022/12/04 03:49:22;;;;;;;;;37.25;35.25;;;;;5.03;66.80;100423.69;5035808;28;45493;-60
2022/12/04 03:51:53;;;;;;;;;32.75;26.00;;;;;5.00;66.53;100423.75;5032411;28;45514;-57
2022/12/04 03:54:24;;;;;;;;;41.00;35.75;;;;;4.98;66.81;100415.09;5012746;28;45616;-59
2022/12/04 03:56:59;;;;;;;;;40.50;34.50;;;;;4.97;67.29;100409.03;5015678;28;45573;-59
2022/12/04 03:59:39;;;;;;;;;39.75;34.25;;;;;4.95;67.01;100400.34;5035496;28;45579;-58
2022/12/04 04:02:09;;;;;;;;;33.25;31.00;;;;;4.97;66.43;100385.56;5035427;28;45623;-60
2022/12/04 04:04:37;;;;;;;;;46.50;37.75;;;;;4.96;66.15;100376.00;5035436;28;45681;-58
2022/12/04 04:07:18;;;;;;;;;43.25;38.00;;;;;4.97;66.61;100363.84;5035441;28;46551;-60
2022/12/04 04:09:48;;;;;;;;;30.25;30.25;;;;;5.00;66.78;100369.88;5035385;28;45538;-58
2022/12/04 04:12:20;;;;;;;;;36.75;34.00;;;;;4.97;66.73;100363.84;5017206;28;45479;-59
2022/12/04 04:26:05;;;;;;;;;38.75;31.00;;;;;4.91;67.42;100356.13;5035195;28;45510;-57
2022/12/04 04:28:36;;;;;;;;;38.00;32.75;;;;;4.92;66.10;100365.69;5020896;28;46108;-58
2022/12/04 04:31:34;;;;;;;;;37.00;33.75;;;;;4.94;66.83;100375.16;5028393;28;45511;-59
2022/12/04 04:34:21;;;;;;;;;35.50;34.75;;;;;4.99;67.91;100378.56;5035118;28;45543;-59
2022/12/04 04:36:56;;;;;;;;;39.25;34.50;;;;;4.99;65.89;100370.75;4985570;28;45523;-59
2022/12/04 04:39:37;;;;;;;;;34.50;29.50;;;;;5.03;67.49;100382.84;5030313;28;46405;-63
2022/12/04 04:42:11;;;;;;;;;38.00;32.50;;;;;4.99;65.68;100370.75;5034991;28;45538;-58
2022/12/04 04:44:54;;;;;;;;;41.75;34.00;;;;;4.97;65.88;100366.44;5020727;28;45484;-56
2022/12/04 04:47:34;;;;;;;;;40.50;35.25;;;;;4.99;66.97;100370.75;5034982;28;45571;-56
2022/12/04 04:50:03;;;;;;;;;40.75;35.25;;;;;5.01;66.46;100371.59;5034219;28;46054;-55
2022/12/04 04:52:30;;;;;;;;;39.00;34.50;;;;;5.03;65.75;100372.44;5002374;28;45561;-59
2022/12/04 04:54:58;;;;;;;;;36.75;34.00;;;;;5.03;66.18;100376.78;4995074;28;45565;-60
2022/12/04 04:57:34;;;;;;;;;40.75;36.00;;;;;5.03;66.35;100379.41;5016618;28;45564;-59
2022/12/04 05:00:01;;;;;;;;;38.25;35.25;;;;;5.03;66.41;100374.19;5028902;28;46078;-58
2022/12/04 05:02:27;;;;;;;;;41.50;37.25;;;;;5.05;67.15;100365.47;5034557;28;45472;-60
2022/12/04 05:04:54;;;;;;;;;40.00;36.00;;;;;5.02;66.00;100362.91;5034500;28;45492;-57
2022/12/04 05:07:19;;;;;;;;;33.75;31.00;;;;;5.02;65.67;100368.13;5016251;28;45487;-60
2022/12/04 05:09:45;;;;;;;;;33.50;31.75;;;;;4.97;67.47;100375.16;5024180;28;47414;-60
2022/12/04 05:12:10;;;;;;;;;37.75;35.00;;;;;5.00;65.65;100380.31;5024761;28;45488;-59
2022/12/04 05:14:35;;;;;;;;;35.50;31.50;;;;;5.04;66.03;100381.97;5024169;28;45523;-58
2022/12/04 05:17:03;;;;;;;;;41.75;37.50;;;;;5.07;67.53;100381.91;5034437;28;45532;-58
2022/12/04 05:22:15;;;;;;;;;36.50;32.50;;;;;5.07;66.50;100368.88;5034143;28;45506;-58
2022/12/04 05:24:41;;;;;;;;;36.25;33.00;;;;;5.08;65.73;100372.38;5034356;28;45548;-60
2022/12/04 05:27:06;;;;;;;;;43.25;37.75;;;;;5.08;66.49;100388.84;5033833;28;54976;-60
2022/12/04 05:29:31;;;;;;;;;38.25;35.50;;;;;5.11;67.22;100387.94;5015192;28;45483;-60
2022/12/04 05:31:57;;;;;;;;;32.00;30.00;;;;;5.06;66.71;100385.41;5023616;28;45447;-59
2022/12/04 05:34:22;;;;;;;;;35.00;33.75;;;;;5.01;65.17;100384.63;5033906;28;45494;-59
2022/12/04 05:36:47;;;;;;;;;37.00;32.00;;;;;4.95;65.65;100397.75;5023642;28;45626;-59
2022/12/04 05:39:13;;;;;;;;;39.75;32.50;;;;;4.90;66.52;100407.38;5033117;28;55160;-60
2022/12/04 05:41:38;;;;;;;;;37.25;32.75;;;;;4.90;66.19;100414.34;5034269;28;50098;-56
2022/12/04 05:44:03;;;;;;;;;43.00;36.50;;;;;4.85;66.52;100419.63;5033657;28;45416;-59
2022/12/04 05:46:29;;;;;;;;;42.50;35.75;;;;;4.87;66.85;100420.47;5013348;28;45726;-59
2022/12/04 05:48:56;;;;;;;;;42.00;33.50;;;;;4.89;66.85;100418.69;5024938;28;58434;-59
2022/12/04 05:51:21;;;;;;;;;46.75;37.75;;;;;4.89;66.04;100421.31;5033758;28;45380;-60
2022/12/04 05:53:46;;;;;;;;;44.00;36.75;;;;;4.91;66.81;100426.47;5033714;28;45452;-60
2022/12/04 05:56:12;;;;;;;;;39.75;34.50;;;;;4.87;66.34;100423.06;5034169;28;45481;-58
2022/12/04 05:58:37;;;;;;;;;43.50;39.25;;;;;4.81;66.66;100425.78;5033673;28;45897;-60
2022/12/04 06:01:18;;;;;;;;;45.00;38.25;;;;;4.87;67.01;100423.06;5017046;28;45467;-60
2022/12/04 06:03:43;;;;;;;;;44.75;37.25;;;;;4.87;66.80;100421.31;5033866;28;45416;-59
2022/12/04 06:06:17;;;;;;;;;37.00;33.25;;;;;4.90;66.10;100419.56;5007312;28;45625;-58
2022/12/04 06:08:42;;;;;;;;;42.00;33.00;;;;;4.88;67.27;100428.25;5032981;28;46410;-59
2022/12/04 06:11:19;;;;;;;;;44.00;38.00;;;;;4.92;68.01;100433.44;5033278;28;45532;-59
2022/12/04 06:13:45;;;;;;;;;45.25;38.75;;;;;4.92;66.36;100418.66;5031508;28;45559;-58
2022/12/04 06:16:14;;;;;;;;;38.75;36.50;;;;;4.91;66.71;100416.91;5020066;28;45771;-59
2022/12/04 06:18:40;;;;;;;;;41.25;36.00;;;;;4.90;66.02;100422.16;5033468;28;46240;-59
2022/12/04 06:21:05;;;;;;;;;48.25;36.75;;;;;4.85;67.50;100425.69;5033476;28;45577;-59
2022/12/04 06:23:30;;;;;;;;;42.50;38.75;;;;;4.84;67.13;100418.75;5033824;28;45581;-58
2022/12/04 06:26:00;;;;;;;;;37.00;33.75;;;;;4.90;67.39;100419.56;5033611;28;45582;-59
2022/12/04 06:28:25;;;;;;;;;47.75;39.25;;;;;4.95;66.04;100409.94;5031616;28;46168;-58
2022/12/04 06:30:50;;;;;;;;;46.75;38.75;;;;;4.98;66.88;100418.56;5015983;28;45559;-59
2022/12/04 06:33:16;;;;;;;;;47.75;38.00;;;;;4.96;66.81;100420.31;5008620;28;46008;-60
2022/12/04 06:35:41;;;;;;;;;44.00;36.50;;;;;4.95;66.09;100421.22;5022179;28;45424;-59
2022/12/04 06:38:06;;;;;;;;;43.75;35.75;;;;;4.88;66.92;100415.22;5033137;28;45479;-60
2022/12/04 06:40:32;;;;;;;;;40.25;36.50;;;;;4.94;67.21;100431.63;5033940;28;45511;-60
2022/12/04 06:42:57;;;;;;;;;36.00;33.50;;;;;4.92;66.74;100444.72;5032832;28;51480;-58
2022/12/04 06:45:22;;;;;;;;;46.25;38.75;;;;;4.90;66.82;100441.25;5023746;28;45519;-58
2022/12/04 06:47:48;;;;;;;;;43.75;37.75;;;;;4.94;66.71;100440.31;5032920;28;46130;-59
2022/12/04 06:50:13;;;;;;;;;40.50;35.50;;;;;4.93;67.15;100438.59;5026681;28;45459;-59
2022/12/04 06:52:38;;;;;;;;;39.50;35.75;;;;;4.94;67.06;100435.09;5036226;28;45513;-58
2022/12/04 06:55:04;;;;;;;;;45.50;41.00;;;;;4.93;66.76;100437.75;5022627;28;49919;-58
2022/12/04 06:57:29;;;;;;;;;45.75;38.50;;;;;4.98;67.19;100441.16;5036539;28;46198;-58
2022/12/04 06:59:55;;;;;;;;;46.00;38.50;;;;;4.95;66.62;100439.44;5036467;28;45493;-58
2022/12/04 07:02:20;;;;;;;;;46.25;37.00;;;;;4.93;67.48;100436.00;5036499;28;45459;-59
2022/12/04 07:04:46;;;;;;;;;36.25;32.25;;;;;5.00;66.91;100439.38;5036522;28;45746;-60
2022/12/04 07:07:11;;;;;;;;;42.50;38.25;;;;;5.03;67.04;100440.19;5008588;28;46314;-60
2022/12/04 07:09:36;;;;;;;;;42.75;38.75;;;;;5.02;66.19;100441.09;5036022;28;45607;-58
2022/12/04 07:12:02;;;;;;;;;43.00;38.00;;;;;4.96;66.43;100440.31;5036334;28;45506;-58
2022/12/04 07:14:27;;;;;;;;;46.00;37.75;;;;;4.90;66.40;100446.47;5036300;28;45595;-57
2022/12/04 07:16:52;;;;;;;;;42.50;36.75;;;;;4.87;67.55;100434.34;5036211;28;46207;-57
2022/12/04 07:19:18;;;;;;;;;42.75;37.50;;;;;4.88;66.70;100435.19;5036211;28;45459;-58
2022/12/04 07:21:43;;;;;;;;;43.25;37.25;;;;;4.92;66.87;100441.25;5028211;28;45730;-59
2022/12/04 07:24:14;;;;;;;;;42.00;37.25;;;;;4.95;67.43;100449.03;5031252;28;53977;-58
2022/12/04 07:26:39;;;;;;;;;51.50;38.25;;;;;4.99;67.32;100448.94;5036207;28;45534;-57
2022/12/04 07:29:05;;;;;;;;;39.00;36.50;;;;;4.99;67.17;100448.06;5035848;28;45459;-57
2022/12/04 07:31:30;;;;;;;;;46.50;36.75;;;;;5.03;67.50;100448.00;5027483;28;46859;-57
2022/12/04 07:33:57;;;;;;;;;42.00;37.00;;;;;5.04;67.23;100439.28;5021429;28;45538;-58
2022/12/04 07:36:24;;;;;;;;;47.00;37.25;;;;;5.03;66.66;100450.63;5035816;28;45481;-58
2022/12/04 07:38:50;;;;;;;;;48.50;38.75;;;;;5.03;67.31;100461.03;5036029;28;45487;-59
2022/12/04 07:41:17;;;;;;;;;49.75;38.50;;;;;5.02;66.76;100451.50;5032239;28;45778;-60
2022/12/04 07:43:43;;;;;;;;;39.25;36.50;;;;;5.05;67.14;100440.16;5036036;28;45594;-58
2022/12/04 07:46:12;;;;;;;;;42.25;39.00;;;;;5.05;67.83;100443.66;5035333;28;45572;-58
2022/12/04 07:48:37;;;;;;;;;38.00;36.00;;;;;5.11;66.91;100454.88;5011826;28;45563;-60
2022/12/04 07:51:29;;;;;;;;;45.50;40.25;;;;;5.06;66.44;100434.06;5035781;28;45518;-59
2022/12/04 07:53:57;;;;;;;;;48.00;40.50;;;;;5.12;67.52;100433.97;5023221;28;45464;-60
2022/12/04 07:56:22;;;;;;;;;52.75;40.25;;;;;5.13;66.60;100440.94;5018191;28;45433;-57
2022/12/04 07:58:48;;;;;;;;;44.25;39.50;;;;;5.11;66.93;100434.00;5017713;28;45592;-60
2022/12/04 08:01:19;;;;;;;;;43.00;36.00;;;;;5.13;66.35;100429.63;5035829;28;45487;-59
2022/12/04 08:03:48;;;;;;;;;49.50;37.25;;;;;5.15;66.91;100425.25;5035186;28;45514;-61
2022/12/04 08:06:14;;;;;;;;;53.25;39.00;;;;;5.18;66.98;100435.63;5035443;28;46066;-58
2022/12/04 08:08:40;;;;;;;;;48.00;39.00;;;;;5.15;66.32;100443.50;5026166;28;45575;-61
2022/12/04 08:11:07;;;;;;;;;46.25;38.75;;;;;5.13;67.17;100433.09;5013019;28;45866;-60
2022/12/04 08:13:33;;;;;;;;;48.25;40.25;;;;;5.16;66.39;100432.16;5035432;28;45447;-61
2022/12/04 08:16:03;;;;;;;;;48.50;37.00;;;;;5.13;66.01;100422.69;5035035;28;46195;-61
2022/12/04 08:18:29;;;;;;;;;45.50;38.75;;;;;5.17;67.39;100432.16;5035459;28;45463;-61
2022/12/04 08:21:02;;;;;;;;;46.75;39.25;;;;;5.16;66.96;100426.94;5035306;28;45515;-61
2022/12/04 08:23:27;;;;;;;;;54.50;41.00;;;;;5.16;66.28;100432.16;5031713;28;45475;-58
2022/12/04 08:25:52;;;;;;;;;50.75;41.25;;;;;5.19;66.44;100434.75;5009227;28;57526;-59
2022/12/04 08:28:17;;;;;;;;;45.50;39.50;;;;;5.20;66.88;100431.25;5034720;28;55386;-60
2022/12/04 08:30:43;;;;;;;;;43.50;39.25;;;;;5.18;66.52;100430.41;5013850;28;45492;-63
2022/12/04 08:33:08;;;;;;;;;55.00;42.25;;;;;5.19;67.07;100433.00;5005499;28;45530;-61
2022/12/04 08:35:33;;;;;;;;;43.25;38.50;;;;;5.23;66.68;100433.81;5034870;28;46080;-60
2022/12/04 08:37:59;;;;;;;;;48.75;42.00;;;;;5.25;68.12;100434.66;5034794;28;45597;-63
2022/12/04 08:40:24;;;;;;;;;49.50;42.50;;;;;5.29;68.03;100441.50;5035582;28;45438;-62
2022/12/04 08:42:49;;;;;;;;;52.50;41.75;;;;;5.32;66.85;100441.50;5034861;28;45473;-63
2022/12/04 08:45:15;;;;;;;;;45.50;39.50;;;;;5.34;66.99;100444.06;5034927;28;45875;-62
2022/12/04 08:47:40;;;;;;;;;46.75;39.75;;;;;5.38;67.51;100445.75;5023766;28;45441;-58
2022/12/04 08:50:06;;;;;;;;;48.75;40.25;;;;;5.38;66.75;100444.00;5032849;28;45506;-63
2022/12/04 08:52:31;;;;;;;;;50.00;38.75;;;;;5.36;66.42;100453.59;5022454;28;45552;-61
2022/12/04 08:54:57;;;;;;;;;52.75;40.25;;;;;5.38;66.04;100459.63;5034768;28;46005;-59
2022/12/04 08:57:22;;;;;;;;;51.50;40.75;;;;;5.38;66.00;100458.78;5027908;28;45459;-59
2022/12/04 08:59:48;;;;;;;;;50.75;40.00;;;;;5.38;66.79;100458.78;5034584;28;45432;-61
2022/12/04 09:02:15;;;;;;;;;54.50;45.00;;;;;5.37;65.91;100452.69;5018287;28;45566;-59
2022/12/04 09:04:40;;;;;;;;;53.25;40.50;;;;;5.40;66.27;100446.56;5034601;28;46127;-62
2022/12/04 09:07:06;;;;;;;;;51.25;41.00;;;;;5.41;66.02;100448.28;5034531;28;45619;-60
2022/12/04 09:09:31;;;;;;;;;52.00;41.75;;;;;5.39;67.05;100450.91;5034535;28;45533;-62
2022/12/04 09:11:56;;;;;;;;;52.25;42.25;;;;;5.37;66.30;100452.69;5034645;28;45617;-59
2022/12/04 09:14:24;;;;;;;;;56.75;44.50;;;;;5.36;65.91;100455.34;5027949;28;46166;-61
2022/12/04 09:16:51;;;;;;;;;53.25;40.75;;;;;5.36;67.08;100445.75;5021016;28;45523;-62
2022/12/04 09:19:16;;;;;;;;;50.00;39.00;;;;;5.37;65.92;100454.44;5027328;28;45457;-59
2022/12/04 09:21:42;;;;;;;;;49.00;38.75;;;;;5.30;65.49;100457.16;5014398;28;45731;-63
2022/12/04 09:24:07;;;;;;;;;52.50;43.25;;;;;5.32;67.01;100454.53;5022916;28;45455;-58
2022/12/04 09:26:32;;;;;;;;;56.50;45.25;;;;;5.38;66.96;100450.97;5030096;28;45508;-63
2022/12/04 09:29:00;;;;;;;;;49.25;40.25;;;;;5.43;66.76;100449.13;5034342;28;45532;-59
2022/12/04 09:31:26;;;;;;;;;48.00;41.00;;;;;5.48;66.58;100437.75;5017861;28;45631;-63
2022/12/04 09:33:52;;;;;;;;;52.75;43.00;;;;;5.44;65.93;100438.66;5022591;28;46242;-54
2022/12/04 09:36:18;;;;;;;;;46.00;39.00;;;;;5.43;65.50;100439.56;5017709;28;45578;-66
2022/12/04 09:38:46;;;;;;;;;57.75;44.75;;;;;5.40;65.81;100447.44;5017755;28;45450;-62
2022/12/04 09:41:46;;;;;;;;;56.25;44.25;;;;;5.41;66.18;100453.50;5034586;28;45574;-64
2022/12/04 09:44:37;;;;;;;;;51.25;44.50;;;;;5.40;66.78;100454.38;5031584;28;46310;-62
2022/12/04 09:47:23;;;;;;;;;49.00;40.75;;;;;5.39;65.89;100456.13;4993876;28;45436;-60
2022/12/04 09:49:55;;;;;;;;;44.00;39.50;;;;;5.41;66.29;100463.94;5028652;28;45501;-60
2022/12/04 09:52:33;;;;;;;;;53.00;43.50;;;;;5.43;67.46;100464.78;4990122;28;45561;-61
2022/12/04 09:55:01;;;;;;;;;47.75;40.25;;;;;5.49;66.56;100464.69;4999458;28;45580;-66
2022/12/04 09:57:40;;;;;;;;;47.50;39.75;;;;;5.45;65.47;100461.25;5007702;28;45560;-63
2022/12/04 10:00:11;;;;;;;;;38.25;35.00;;;;;5.44;66.05;100450.84;5029957;28;45508;-58
2022/12/04 10:02:40;;;;;;;;;49.25;39.25;;;;;5.48;67.21;100444.69;5007630;28;45454;-59
2022/12/04 10:05:13;;;;;;;;;45.00;37.00;;;;;5.51;66.20;100445.50;5033250;28;46405;-63
2022/12/04 10:07:59;;;;;;;;;50.75;41.25;;;;;5.53;67.10;100445.47;5033749;28;46355;-64
2022/12/04 10:10:40;;;;;;;;;44.50;40.00;;;;;5.52;65.62;100447.22;5033480;28;45433;-62
2022/12/04 10:13:20;;;;;;;;;37.75;35.25;;;;;5.53;65.65;100440.25;5033527;28;45705;-60
2022/12/04 10:15:59;;;;;;;;;52.00;42.75;;;;;5.51;65.65;100442.91;5033158;28;45909;-61
2022/12/04 10:18:33;;;;;;;;;49.50;40.75;;;;;5.55;67.07;100448.91;5033703;28;45563;-58
2022/12/04 10:21:10;;;;;;;;;45.25;39.00;;;;;5.56;65.97;100447.16;5033393;28;45452;-61
2022/12/04 10:24:00;;;;;;;;;48.75;40.25;;;;;5.60;65.70;100441.03;5033862;28;45487;-60
2022/12/04 10:26:32;;;;;;;;;48.25;41.75;;;;;5.61;66.38;100451.41;5036112;28;45561;-62
2022/12/04 10:29:02;;;;;;;;;52.25;39.75;;;;;5.58;65.66;100429.75;5036820;28;45488;-62
2022/12/04 10:31:30;;;;;;;;;56.00;43.00;;;;;5.58;65.28;100430.59;5036903;28;45450;-58
2022/12/04 10:34:12;;;;;;;;;51.50;43.75;;;;;5.51;65.86;100429.84;5036818;28;45485;-59
2022/12/04 10:36:40;;;;;;;;;55.75;43.50;;;;;5.57;66.61;100438.47;5036187;28;45635;-57
2022/12/04 10:39:12;;;;;;;;;53.00;43.00;;;;;5.60;66.20;100435.81;5036906;28;45569;-61
2022/12/04 10:41:59;;;;;;;;;50.50;39.25;;;;;5.61;66.61;100438.38;5036927;28;45454;-60
2022/12/04 10:44:25;;;;;;;;;47.75;41.00;;;;;5.64;65.76;100437.44;5018643;28;45563;-63
2022/12/04 10:46:55;;;;;;;;;56.25;43.00;;;;;5.68;67.30;100437.38;5036758;28;46054;-59
2022/12/04 10:49:27;;;;;;;;;45.75;39.50;;;;;5.69;65.81;100439.09;5034577;28;45373;-58
2022/12/04 10:51:54;;;;;;;;;51.75;43.25;;;;;5.65;66.08;100440.03;5006723;28;45521;-60
2022/12/04 10:54:34;;;;;;;;;53.25;43.25;;;;;5.60;65.82;100443.63;5020701;28;45624;-60
2022/12/04 10:57:02;;;;;;;;;53.75;41.50;;;;;5.59;65.48;100445.38;5019593;28;45522;-61
2022/12/04 10:59:29;;;;;;;;;45.50;39.25;;;;;5.54;66.65;100437.63;5036851;28;45593;-61
2022/12/04 11:02:02;;;;;;;;;44.00;39.00;;;;;5.60;66.86;100431.44;5017651;28;45456;-59
2022/12/04 11:04:30;;;;;;;;;46.25;39.50;;;;;5.60;66.35;100426.22;5037173;28;45539;-57
2022/12/04 11:07:06;;;;;;;;;48.00;40.00;;;;;5.61;67.13;100429.69;5036200;28;45630;-63
2022/12/04 11:09:32;;;;;;;;;43.25;38.25;;;;;5.60;66.40;100433.19;5036173;28;45512;-59
2022/12/04 11:12:07;;;;;;;;;51.25;41.75;;;;;5.56;66.61;100437.56;5036852;28;45867;-58
2022/12/04 11:14:32;;;;;;;;;55.50;44.75;;;;;5.59;66.82;100442.78;5005121;28;45594;-59
2022/12/04 11:17:04;;;;;;;;;48.00;38.00;;;;;5.54;66.37;100434.16;5028729;28;46878;-60
2022/12/04 11:19:33;;;;;;;;;40.75;38.00;;;;;5.51;66.66;100419.44;5036291;28;45516;-60
2022/12/04 11:22:13;;;;;;;;;57.25;45.00;;;;;5.53;66.89;100419.38;5036115;28;45526;-61
2022/12/04 11:24:41;;;;;;;;;34.50;29.75;;;;;5.52;67.60;100422.88;5036343;28;45530;-62
2022/12/04 11:27:17;;;;;;;;;55.25;45.00;;;;;5.56;67.13;100419.31;5036154;28;45957;-60
2022/12/04 11:29:44;;;;;;;;;55.50;43.50;;;;;5.63;67.75;100420.09;5020300;28;45515;-56
2022/12/04 11:32:24;;;;;;;;;51.50;42.75;;;;;5.64;66.72;100413.97;5036190;28;45566;-59
2022/12/04 11:34:52;;;;;;;;;42.50;37.25;;;;;5.62;67.10;100414.03;5035954;28;45494;-60
2022/12/04 11:37:25;;;;;;;;;55.50;44.75;;;;;5.64;67.05;100419.19;5025409;28;45492;-61
2022/12/04 11:39:52;;;;;;;;;47.50;39.00;;;;;5.63;66.91;100417.47;5005166;28;45395;-60
2022/12/04 11:42:23;;;;;;;;;49.75;38.00;;;;;5.64;67.66;100425.28;5036064;28;45509;-61
2022/12/04 11:44:56;;;;;;;;;47.00;38.25;;;;;5.62;67.41;100410.56;5035897;28;45461;-61